createdAt,value
2023-01-07T00:01:41.089Z,100856.94
2023-01-07T00:04:12.210Z,100846.69
2023-01-07T00:06:41.610Z,100865.97
2023-01-07T00:09:14.619Z,100852.53
2023-01-07T00:11:42.216Z,100847.41
2023-01-07T00:14:11.837Z,100855.22
2023-01-07T00:16:40.435Z,100850.94
2023-01-07T00:19:10.397Z,100862.31
2023-01-07T00:21:37.799Z,100854.97
2023-01-07T00:24:06.206Z,100857.78
2023-01-07T00:26:36.562Z,100853.28
2023-01-07T00:29:06.125Z,100852.41
2023-01-07T00:31:36.451Z,100853.28
2023-01-07T00:34:04.331Z,100853.28
2023-01-07T00:36:34.902Z,100856.94
2023-01-07T00:39:22.546Z,100855.84
2023-01-07T00:42:08.617Z,100848.16
2023-01-07T00:44:37.980Z,100864.75
2023-01-07T00:47:05.601Z,100847.41
2023-01-07T00:49:33.021Z,100841.91
2023-01-07T00:52:00.360Z,100854.63
2023-01-07T00:54:27.742Z,100854.75
2023-01-07T00:56:55.788Z,100859.13
2023-01-07T00:59:23.250Z,100855.47
2023-01-07T01:01:51.535Z,100863.53
2023-01-07T01:04:18.955Z,100857.41
2023-01-07T01:06:46.495Z,100856.44
2023-01-07T01:09:13.947Z,100858.28
2023-01-07T01:11:42.032Z,100850.59
2023-01-07T01:14:11.280Z,100855.72
2023-01-07T01:16:39.229Z,100855.47
2023-01-07T01:19:07.155Z,100856.44
2023-01-07T01:21:34.556Z,100853.16
2023-01-07T01:24:01.942Z,100851.06
2023-01-07T01:26:29.396Z,100856.44
2023-01-07T01:28:57.472Z,100848.16
2023-01-07T01:31:25.653Z,100856.56
2023-01-07T01:33:55.144Z,100850.22
2023-01-07T01:36:23.336Z,100842.41
2023-01-07T01:38:52.155Z,100841.31
2023-01-07T01:41:19.708Z,100837.91
2023-01-07T01:43:50.051Z,100838.88
2023-01-07T01:46:30.889Z,100842.53
2023-01-07T01:49:08.126Z,100835.34
2023-01-07T01:51:40.301Z,100850.84
2023-01-07T01:54:12.008Z,100843.63
2023-01-07T01:56:44.118Z,100841.91
2023-01-07T01:59:16.049Z,100835.56
2023-01-07T02:01:43.663Z,100832.41
2023-01-07T02:04:18.659Z,100842.91
2023-01-07T02:06:58.281Z,100839.38
2023-01-07T02:09:27.789Z,100828.25
2023-01-07T02:12:14.703Z,100830.09
2023-01-07T02:15:00.799Z,100845.47
2023-01-07T02:17:51.365Z,100846.31
2023-01-07T02:20:34.275Z,100835.44
2023-01-07T02:23:27.105Z,100842.66
2023-01-07T02:26:09.419Z,100844.47
2023-01-07T02:29:05.215Z,100844.47
2023-01-07T02:32:00.682Z,100844.47
2023-01-07T02:35:05.245Z,100842.66
2023-01-07T02:38:07.854Z,100836.19
2023-01-07T02:41:13.956Z,100839.72
2023-01-07T02:44:04.070Z,100836.06
2023-01-07T02:46:42.432Z,100841.69
2023-01-07T02:49:14.235Z,100845.09
2023-01-07T02:51:43.188Z,100829.72
2023-01-07T02:54:23.700Z,100825.94
2023-01-07T02:57:24.435Z,100844.38
2023-01-07T03:00:25.169Z,100823.38
2023-01-07T03:03:22.016Z,100838.13
2023-01-07T03:06:04.569Z,100829.47
2023-01-07T03:08:52.052Z,100824.97
2023-01-07T03:11:23.784Z,100813.59
2023-01-07T03:14:08.810Z,100818.50
2023-01-07T03:16:41.352Z,100821.16
2023-01-07T03:19:13.720Z,100817.63
2023-01-07T03:21:41.157Z,100805.56
2023-01-07T03:24:09.509Z,100815.81
2023-01-07T03:26:44.128Z,100810.31
2023-01-07T03:29:14.878Z,100800.91
2023-01-07T03:32:03.162Z,100807.63
2023-01-07T03:34:33.983Z,100795.66
2023-01-07T03:37:05.979Z,100813.97
2023-01-07T03:39:36.093Z,100804.44
2023-01-07T03:42:27.523Z,100798.09
2023-01-07T03:44:55.292Z,100808.47
2023-01-07T03:47:29.547Z,100807.63
2023-01-07T03:49:57.017Z,100810.31
2023-01-07T03:52:24.446Z,100800.78
2023-01-07T03:54:52.424Z,100792.00
2023-01-07T03:57:20.445Z,100802.50
2023-01-07T03:59:47.852Z,100798.84
2023-01-07T04:02:15.430Z,100787.00
2023-01-07T04:04:42.954Z,100784.31
2023-01-07T04:07:10.465Z,100801.66
2023-01-07T04:09:38.390Z,100802.50
2023-01-07T04:12:06.795Z,100778.94
2023-01-07T04:14:34.255Z,100798.84
2023-01-07T04:17:01.752Z,100796.16
2023-01-07T04:19:29.138Z,100795.16
2023-01-07T04:21:57.589Z,100795.28
2023-01-07T04:24:25.017Z,100793.47
2023-01-07T04:26:52.952Z,100782.25
2023-01-07T04:29:21.664Z,100791.63
2023-01-07T04:31:49.891Z,100795.16
2023-01-07T04:34:17.346Z,100795.28
2023-01-07T04:36:44.892Z,100790.03
2023-01-07T04:39:13.397Z,100784.69
2023-01-07T04:41:40.935Z,100786.63
2023-01-07T04:44:09.484Z,100782.25
2023-01-07T04:46:36.913Z,100790.28
2023-01-07T04:49:04.508Z,100774.69
2023-01-07T04:51:31.963Z,100774.81
2023-01-07T04:54:00.031Z,100781.38
2023-01-07T04:56:27.841Z,100785.78
2023-01-07T04:58:55.607Z,100780.53
2023-01-07T05:01:24.571Z,100779.56
2023-01-07T05:03:52.199Z,100779.44
2023-01-07T05:06:20.210Z,100785.66
2023-01-07T05:08:48.504Z,100790.16
2023-01-07T05:11:21.480Z,100782.59
2023-01-07T05:13:51.305Z,100791.03
2023-01-07T05:16:19.967Z,100795.41
2023-01-07T05:18:47.392Z,100789.31
2023-01-07T05:21:14.907Z,100784.56
2023-01-07T05:23:44.141Z,100777.34
2023-01-07T05:26:11.732Z,100779.31
2023-01-07T05:28:39.125Z,100790.78
2023-01-07T05:31:06.537Z,100790.66
2023-01-07T05:33:34.351Z,100796.88
2023-01-07T05:36:03.225Z,100797.59
2023-01-07T05:38:30.844Z,100805.41
2023-01-07T05:40:58.197Z,100804.41
2023-01-07T05:43:28.171Z,100799.03
2023-01-07T05:45:56.206Z,100795.16
2023-01-07T05:48:23.662Z,100807.09
2023-01-07T05:50:51.143Z,100801.72
2023-01-07T05:53:18.574Z,100808.81
2023-01-07T05:55:45.902Z,100798.59
2023-01-07T05:58:13.333Z,100794.81
2023-01-07T06:00:40.909Z,100809.53
2023-01-07T06:03:08.392Z,100813.94
2023-01-07T06:05:35.778Z,100820.03
2023-01-07T06:08:03.250Z,100811.97
2023-01-07T06:10:30.763Z,100816.38
2023-01-07T06:12:58.214Z,100824.28
2023-01-07T06:15:25.610Z,100815.38
2023-01-07T06:17:52.961Z,100797.94
2023-01-07T06:20:20.395Z,100811.72
2023-01-07T06:22:47.941Z,100809.75
2023-01-07T06:25:15.809Z,100806.47
2023-01-07T06:27:43.189Z,100814.41
2023-01-07T06:30:11.669Z,100817.81
2023-01-07T06:32:40.673Z,100815.13
2023-01-07T06:35:11.017Z,100817.69
2023-01-07T06:37:38.999Z,100817.69
2023-01-07T06:40:07.419Z,100804.88
2023-01-07T06:42:35.032Z,100824.66
2023-01-07T06:45:02.442Z,100819.28
2023-01-07T06:47:29.974Z,100811.72
2023-01-07T06:49:57.409Z,100813.91
2023-01-07T06:52:24.761Z,100807.19
2023-01-07T06:54:52.227Z,100825.50
2023-01-07T06:57:19.676Z,100824.53
2023-01-07T06:59:47.024Z,100825.38
2023-01-07T07:02:19.956Z,100830.75
2023-01-07T07:04:47.664Z,100824.41
2023-01-07T07:07:15.552Z,100825.38
2023-01-07T07:09:43.152Z,100835.16
2023-01-07T07:12:10.977Z,100822.22
2023-01-07T07:14:39.065Z,100835.03
2023-01-07T07:17:06.840Z,100811.84
2023-01-07T07:19:34.772Z,100825.50
2023-01-07T07:22:03.983Z,100811.97
2023-01-07T07:24:33.033Z,100825.75
2023-01-07T07:27:00.451Z,100818.94
2023-01-07T07:29:27.837Z,100822.22
2023-01-07T07:31:55.188Z,100823.06
2023-01-07T07:34:22.564Z,100830.28
2023-01-07T07:36:50.114Z,100826.59
2023-01-07T07:39:17.481Z,100825.63
2023-01-07T07:41:44.824Z,100820.50
2023-01-07T07:44:12.316Z,100817.56
2023-01-07T07:46:41.342Z,100818.06
2023-01-07T07:49:11.139Z,100821.72
2023-01-07T07:51:38.671Z,100822.09
2023-01-07T07:54:05.996Z,100825.88
2023-01-07T07:56:33.387Z,100820.50
2023-01-07T07:59:00.947Z,100827.72
2023-01-07T08:01:28.370Z,100825.16
2023-01-07T08:03:55.967Z,100813.06
2023-01-07T08:06:23.462Z,100823.56
2023-01-07T08:08:50.805Z,100834.31
2023-01-07T08:11:18.228Z,100816.00
2023-01-07T08:13:45.629Z,100832.59
2023-01-07T08:16:13.048Z,100819.53
2023-01-07T08:18:40.475Z,100830.91
2023-01-07T08:21:07.873Z,100811.88
2023-01-07T08:23:35.231Z,100815.88
2023-01-07T08:26:03.396Z,100816.72
2023-01-07T08:28:31.925Z,100811.03
2023-01-07T08:31:04.072Z,100818.56
2023-01-07T08:33:34.171Z,100816.72
2023-01-07T08:36:02.493Z,100804.94
2023-01-07T08:38:31.750Z,100814.03
2023-01-07T08:40:59.933Z,100799.44
2023-01-07T08:43:28.035Z,100808.81
2023-01-07T08:45:55.483Z,100812.34
2023-01-07T08:48:23.215Z,100811.50
2023-01-07T08:50:52.665Z,100809.66
2023-01-07T08:53:21.323Z,100817.72
2023-01-07T08:55:49.059Z,100802.00
2023-01-07T08:58:16.424Z,100812.22
2023-01-07T09:00:44.275Z,100811.38
2023-01-07T09:03:11.808Z,100811.38
2023-01-07T09:05:39.156Z,100805.25
2023-01-07T09:08:06.558Z,100803.44
2023-01-07T09:10:34.014Z,100799.03
2023-01-07T09:13:01.441Z,100796.50
2023-01-07T09:15:29.017Z,100801.72
2023-01-07T09:17:56.448Z,100805.25
2023-01-07T09:20:23.833Z,100819.53
2023-01-07T09:22:51.246Z,100792.50
2023-01-07T09:25:18.647Z,100802.56
2023-01-07T09:27:46.102Z,100800.03
2023-01-07T09:30:13.622Z,100798.19
2023-01-07T09:32:43.345Z,100792.38
2023-01-07T09:35:10.896Z,100794.69
2023-01-07T09:37:38.310Z,100792.97
2023-01-07T09:40:06.646Z,100774.53
2023-01-07T09:42:56.823Z,100786.47
2023-01-07T09:45:34.328Z,100775.72
2023-01-07T09:48:09.914Z,100778.56
2023-01-07T09:50:48.432Z,100763.94
2023-01-07T09:53:26.917Z,100783.06
2023-01-07T09:56:10.983Z,100779.66
2023-01-07T09:58:44.430Z,100783.94
2023-01-07T10:01:24.301Z,100761.38
2023-01-07T10:04:13.863Z,100766.13
2023-01-07T10:06:48.551Z,100772.47
2023-01-07T10:09:33.788Z,100755.13
2023-01-07T10:12:19.919Z,100763.56
2023-01-07T10:14:58.472Z,100766.25
2023-01-07T10:18:15.772Z,100758.91
2023-01-07T10:21:09.497Z,100760.00
2023-01-07T10:23:41.624Z,100740.84
2023-01-07T10:26:26.509Z,100748.41
2023-01-07T10:29:17.309Z,100740.34
2023-01-07T10:31:46.418Z,100736.34
2023-01-07T10:34:19.311Z,100750.25
2023-01-07T10:37:05.948Z,100744.03
2023-01-07T10:39:49.083Z,100736.09
2023-01-07T10:42:22.527Z,100736.81
2023-01-07T10:45:03.587Z,100729.75
2023-01-07T10:47:33.734Z,100712.31
2023-01-07T10:50:19.565Z,100706.94
2023-01-07T10:52:55.378Z,100707.03
2023-01-07T10:55:37.325Z,100702.28
2023-01-07T10:58:05.052Z,100699.34
2023-01-07T11:00:32.960Z,100711.25
2023-01-07T11:03:00.438Z,100700.75
2023-01-07T11:05:38.916Z,100698.25
2023-01-07T11:08:13.782Z,100681.81
2023-01-07T11:10:41.589Z,100692.63
2023-01-07T11:13:19.240Z,100690.84
2023-01-07T11:15:54.984Z,100688.72
2023-01-07T11:18:29.703Z,100678.34
2023-01-07T11:20:59.500Z,100668.72
2023-01-07T11:23:32.618Z,100657.75
2023-01-07T11:26:12.868Z,100666.41
2023-01-07T11:28:48.471Z,100654.47
2023-01-07T11:31:15.930Z,100645.44
2023-01-07T11:34:02.474Z,100655.94
2023-01-07T11:36:42.713Z,100653.38
2023-01-07T11:39:23.281Z,100650.81
2023-01-07T11:41:55.867Z,100636.22
2023-01-07T11:44:23.629Z,100643.00
2023-01-07T11:46:52.007Z,100635.81
2023-01-07T11:49:32.241Z,100637.63
2023-01-07T11:51:59.667Z,100635.94
2023-01-07T11:54:29.410Z,100632.41
2023-01-07T11:57:24.292Z,100628.00
2023-01-07T12:00:17.535Z,100626.19
2023-01-07T12:02:45.103Z,100613.41
2023-01-07T12:05:21.489Z,100614.00
2023-01-07T12:07:50.938Z,100616.56
2023-01-07T12:10:44.603Z,100613.03
2023-01-07T12:13:26.115Z,100614.00
2023-01-07T12:15:55.652Z,100606.94
2023-01-07T12:18:42.067Z,100600.59
2023-01-07T12:21:31.511Z,100596.19
2023-01-07T12:24:40.073Z,100590.81
2023-01-07T12:27:07.317Z,100591.81
2023-01-07T12:29:57.888Z,100590.22
2023-01-07T12:32:54.074Z,100587.41
2023-01-07T12:35:27.794Z,100592.78
2023-01-07T12:38:02.940Z,100577.44
2023-01-07T12:40:39.095Z,100578.19
2023-01-07T12:43:13.301Z,100581.19
2023-01-07T12:45:47.836Z,100578.50
2023-01-07T12:48:22.340Z,100561.34
2023-01-07T12:50:54.104Z,100582.06
2023-01-07T12:54:00.496Z,100583.03
2023-01-07T12:56:30.387Z,100586.81
2023-01-07T12:59:45.614Z,100578.63
2023-01-07T13:02:21.914Z,100569.41
2023-01-07T13:05:09.717Z,100571.56
2023-01-07T13:07:55.007Z,100573.41
2023-01-07T13:10:26.546Z,100567.91
2023-01-07T13:12:58.683Z,100567.19
2023-01-07T13:15:33.020Z,100572.53
2023-01-07T13:18:11.721Z,100572.41
2023-01-07T13:20:51.588Z,100546.47
2023-01-07T13:23:37.768Z,100568.88
2023-01-07T13:26:11.484Z,100564.50
2023-01-07T13:28:54.866Z,100572.53
2023-01-07T13:32:00.827Z,100570.00
2023-01-07T13:34:34.270Z,100574.38
2023-01-07T13:37:32.603Z,100571.69
2023-01-07T13:40:17.880Z,100563.31
2023-01-07T13:42:54.933Z,100577.06
2023-01-07T13:45:32.161Z,100569.88
2023-01-07T13:48:03.080Z,100574.38
2023-01-07T13:50:42.317Z,100577.91
2023-01-07T13:53:15.720Z,100580.59
2023-01-07T13:55:46.080Z,100572.22
2023-01-07T13:58:28.769Z,100581.44
2023-01-07T14:01:14.398Z,100578.91
2023-01-07T14:03:49.742Z,100571.09
2023-01-07T14:06:20.129Z,100575.75
2023-01-07T14:08:58.637Z,100574.75
2023-01-07T14:11:42.178Z,100571.50
2023-01-07T14:14:21.850Z,100582.44
2023-01-07T14:17:13.817Z,100585.13
2023-01-07T14:19:55.124Z,100589.63
2023-01-07T14:22:48.580Z,100585.97
2023-01-07T14:25:35.942Z,100576.47
2023-01-07T14:28:46.643Z,100580.59
2023-01-07T14:31:24.715Z,100578.03
2023-01-07T14:34:20.807Z,100582.56
2023-01-07T14:37:08.938Z,100571.81
2023-01-07T14:39:46.360Z,100572.69
2023-01-07T14:42:19.796Z,100565.59
2023-01-07T14:44:49.279Z,100567.44
2023-01-07T14:47:44.814Z,100568.28
2023-01-07T14:50:30.337Z,100568.41
2023-01-07T14:53:26.851Z,100561.34
2023-01-07T14:56:21.183Z,100563.31
2023-01-07T14:59:13.446Z,100555.25
2023-01-07T15:01:43.727Z,100546.00
2023-01-07T15:04:17.032Z,100549.16
2023-01-07T15:06:45.379Z,100561.72
2023-01-07T15:09:43.972Z,100550.81
2023-01-07T15:12:41.406Z,100548.97
2023-01-07T15:15:32.591Z,100561.00
2023-01-07T15:18:22.203Z,100557.47
2023-01-07T15:21:11.224Z,100542.88
2023-01-07T15:24:02.738Z,100559.31
2023-01-07T15:26:54.500Z,100555.75
2023-01-07T15:29:46.179Z,100551.78
2023-01-07T15:32:35.118Z,100557.72
2023-01-07T15:35:14.434Z,100548.25
2023-01-07T15:37:47.022Z,100554.19
2023-01-07T15:40:24.690Z,100547.28
2023-01-07T15:42:56.275Z,100549.97
2023-01-07T15:45:27.038Z,100544.72
2023-01-07T15:48:06.769Z,100532.63
2023-01-07T15:50:36.558Z,100532.63
2023-01-07T15:53:20.125Z,100547.16
2023-01-07T15:56:05.935Z,100546.44
2023-01-07T15:58:40.059Z,100547.28
2023-01-07T16:01:14.056Z,100546.56
2023-01-07T16:03:44.586Z,100545.84
2023-01-07T16:06:26.717Z,100546.56
2023-01-07T16:08:54.481Z,100545.97
2023-01-07T16:11:27.775Z,100559.25
2023-01-07T16:14:02.687Z,100545.97
2023-01-07T16:16:32.271Z,100543.16
2023-01-07T16:19:01.702Z,100544.34
2023-01-07T16:21:44.741Z,100535.69
2023-01-07T16:24:16.299Z,100544.34
2023-01-07T16:26:51.696Z,100532.88
2023-01-07T16:29:23.675Z,100535.31
2023-01-07T16:31:51.637Z,100543.50
2023-01-07T16:34:38.945Z,100540.81
2023-01-07T16:37:15.142Z,100544.34
2023-01-07T16:39:47.353Z,100542.66
2023-01-07T16:42:20.416Z,100540.81
2023-01-07T16:44:49.546Z,100538.13
2023-01-07T16:47:22.499Z,100519.25
2023-01-07T16:49:50.286Z,100540.94
2023-01-07T16:52:20.755Z,100521.81
2023-01-07T16:54:49.726Z,100540.22
2023-01-07T16:57:42.202Z,100530.34
2023-01-07T17:00:17.458Z,100530.59
2023-01-07T17:02:59.736Z,100525.09
2023-01-07T17:05:32.328Z,100511.47
2023-01-07T17:08:06.982Z,100525.94
2023-01-07T17:10:37.549Z,100513.50
2023-01-07T17:13:14.031Z,100522.53
2023-01-07T17:15:42.851Z,100507.94
2023-01-07T17:18:13.221Z,100524.25
2023-01-07T17:20:54.722Z,100532.28
2023-01-07T17:23:24.894Z,100531.44
2023-01-07T17:26:10.888Z,100517.81
2023-01-07T17:28:46.818Z,100518.66
2023-01-07T17:31:14.383Z,100521.56
2023-01-07T17:33:42.451Z,100526.19
2023-01-07T17:36:18.010Z,100512.56
2023-01-07T17:38:46.117Z,100523.38
2023-01-07T17:41:37.738Z,100510.75
2023-01-07T17:44:07.159Z,100528.75
2023-01-07T17:46:34.495Z,100514.88
2023-01-07T17:49:01.923Z,100514.16
2023-01-07T17:51:29.629Z,100511.59
2023-01-07T17:53:58.860Z,100531.56
2023-01-07T17:56:26.212Z,100537.66
2023-01-07T17:58:55.968Z,100533.28
2023-01-07T18:01:24.497Z,100530.59
2023-01-07T18:03:53.231Z,100536.81
2023-01-07T18:06:23.060Z,100546.56
2023-01-07T18:08:52.267Z,100543.88
2023-01-07T18:11:42.827Z,100538.50
2023-01-07T18:14:13.202Z,100549.25
2023-01-07T18:16:40.932Z,100544.59
2023-01-07T18:19:12.498Z,100541.06
2023-01-07T18:21:40.192Z,100541.06
2023-01-07T18:24:07.961Z,100523.78
2023-01-07T18:26:35.294Z,100525.47
2023-01-07T18:29:02.670Z,100533.88
2023-01-07T18:31:30.183Z,100536.56
2023-01-07T18:33:57.559Z,100525.34
2023-01-07T18:36:25.009Z,100521.22
2023-01-07T18:38:53.203Z,100544.59
2023-01-07T18:41:20.628Z,100542.03
2023-01-07T18:43:48.697Z,100530.72
2023-01-07T18:46:17.555Z,100541.91
2023-01-07T18:48:45.161Z,100540.81
2023-01-07T18:51:12.635Z,100540.69
2023-01-07T18:53:40.043Z,100537.06
2023-01-07T18:56:11.613Z,100537.16
2023-01-07T18:58:39.865Z,100532.16
2023-01-07T19:01:08.789Z,100544.25
2023-01-07T19:03:37.380Z,100529.47
2023-01-07T19:06:06.759Z,100529.47
2023-01-07T19:08:34.249Z,100544.97
2023-01-07T19:11:01.643Z,100537.78
2023-01-07T19:13:29.009Z,100539.75
2023-01-07T19:15:56.461Z,100533.75
2023-01-07T19:18:23.846Z,100542.16
2023-01-07T19:20:51.464Z,100527.53
2023-01-07T19:23:18.896Z,100527.41
2023-01-07T19:25:57.183Z,100529.09
2023-01-07T19:28:24.528Z,100537.53
2023-01-07T19:30:51.856Z,100534.84
2023-01-07T19:33:19.304Z,100527.25
2023-01-07T19:35:46.638Z,100539.22
2023-01-07T19:38:14.357Z,100538.38
2023-01-07T19:40:45.524Z,100530.44
2023-01-07T19:43:13.326Z,100538.25
2023-01-07T19:45:41.049Z,100536.66
2023-01-07T19:48:08.468Z,100540.06
2023-01-07T19:50:35.839Z,100540.94
2023-01-07T19:53:03.302Z,100539.09
2023-01-07T19:55:30.677Z,100542.88
2023-01-07T19:57:58.594Z,100542.75
2023-01-07T20:00:26.030Z,100551.66
2023-01-07T20:02:53.492Z,100552.66
2023-01-07T20:05:21.169Z,100540.06
2023-01-07T20:07:48.555Z,100549.84
2023-01-07T20:10:15.948Z,100547.16
2023-01-07T20:12:43.290Z,100541.44
2023-01-07T20:15:10.992Z,100543.00
2023-01-07T20:17:38.383Z,100544.84
2023-01-07T20:20:08.206Z,100540.94
2023-01-07T20:22:39.759Z,100546.28
2023-01-07T20:25:08.924Z,100530.72
2023-01-07T20:27:39.399Z,100539.09
2023-01-07T20:30:08.666Z,100534.97
2023-01-07T20:32:35.984Z,100541.91
2023-01-07T20:35:03.514Z,100533.84
2023-01-07T20:37:30.940Z,100540.94
2023-01-07T20:39:58.333Z,100540.06
2023-01-07T20:42:26.833Z,100529.34
2023-01-07T20:44:54.189Z,100515.69
2023-01-07T20:47:21.551Z,100530.31
2023-01-07T20:49:48.864Z,100530.31
2023-01-07T20:52:16.359Z,100533.00
2023-01-07T20:54:44.800Z,100534.72
2023-01-07T20:57:13.418Z,100521.91
2023-01-07T20:59:40.792Z,100533.25
2023-01-07T21:02:15.693Z,100534.84
2023-01-07T21:04:43.828Z,100533.00
2023-01-07T21:07:11.351Z,100532.16
2023-01-07T21:09:38.828Z,100518.38
2023-01-07T21:12:06.376Z,100537.38
2023-01-07T21:14:33.882Z,100539.22
2023-01-07T21:17:01.235Z,100527.25
2023-01-07T21:19:28.736Z,100529.59
2023-01-07T21:21:56.052Z,100525.81
2023-01-07T21:24:23.402Z,100528.50
2023-01-07T21:26:50.866Z,100526.66
2023-01-07T21:29:18.280Z,100531.16
2023-01-07T21:31:46.068Z,100526.66
2023-01-07T21:34:13.633Z,100523.25
2023-01-07T21:36:41.543Z,100520.44
2023-01-07T21:39:11.839Z,100515.19
2023-01-07T21:41:39.565Z,100505.78
2023-01-07T21:44:06.898Z,100501.31
2023-01-07T21:46:34.307Z,100514.22
2023-01-07T21:49:03.792Z,100515.19
2023-01-07T21:51:31.166Z,100523.25
2023-01-07T21:53:58.650Z,100514.22
2023-01-07T21:56:28.726Z,100519.00
2023-01-07T21:58:56.298Z,100513.75
2023-01-07T22:01:28.319Z,100504.09
2023-01-07T22:03:58.718Z,100509.47
2023-01-07T22:06:32.658Z,100514.47
2023-01-07T22:09:05.475Z,100506.06
2023-01-07T22:11:34.580Z,100499.56
2023-01-07T22:14:02.142Z,100507.53
2023-01-07T22:16:31.876Z,100505.56
2023-01-07T22:19:00.060Z,100502.16
2023-01-07T22:21:28.022Z,100498.72
2023-01-07T22:23:55.446Z,100500.56
2023-01-07T22:26:23.529Z,100509.97
2023-01-07T22:28:56.596Z,100501.06
2023-01-07T22:31:30.313Z,100502.88
2023-01-07T22:33:58.493Z,100502.88
2023-01-07T22:36:46.508Z,100500.34
2023-01-07T22:39:19.790Z,100498.50
2023-01-07T22:41:48.037Z,100492.16
2023-01-07T22:44:23.256Z,100488.84
2023-01-07T22:46:53.205Z,100482.16
2023-01-07T22:49:26.868Z,100493.97
2023-01-07T22:51:54.789Z,100495.19
2023-01-07T22:54:22.607Z,100496.78
2023-01-07T22:56:50.695Z,100487.88
2023-01-07T22:59:18.107Z,100481.63
2023-01-07T23:01:45.535Z,100491.53
2023-01-07T23:04:13.208Z,100485.31
2023-01-07T23:06:40.754Z,100487.97
2023-01-07T23:09:08.253Z,100481.63
2023-01-07T23:11:51.716Z,100473.59
2023-01-07T23:14:22.998Z,100468.75
2023-01-07T23:16:51.900Z,100471.88
2023-01-07T23:19:21.015Z,100458.97
2023-01-07T23:21:51.652Z,100471.88
2023-01-07T23:24:19.672Z,100470.19
2023-01-07T23:26:48.956Z,100471.03
2023-01-07T23:29:17.162Z,100471.66
2023-01-07T23:31:45.699Z,100473.81
2023-01-07T23:34:13.821Z,100473.53
2023-01-07T23:36:41.357Z,100453.59
2023-01-07T23:39:08.760Z,100468.88
2023-01-07T23:41:36.171Z,100459.84
2023-01-07T23:44:03.795Z,100453.63
2023-01-07T23:46:31.769Z,100464.09
2023-01-07T23:48:59.171Z,100449.38
2023-01-07T23:51:26.554Z,100451.66
2023-01-07T23:53:54.160Z,100461.41
2023-01-07T23:56:22.243Z,100451.91
2023-01-07T23:58:50.261Z,100451.78
